createdAt,value
2023-05-19T00:02:26.120Z,100799.16
2023-05-19T00:04:53.272Z,100788.72
2023-05-19T00:07:24.464Z,100800.50
2023-05-19T00:09:51.410Z,100801.06
2023-05-19T00:12:18.254Z,100801.34
2023-05-19T00:14:45.199Z,100794.44
2023-05-19T00:17:12.162Z,100787.44
2023-05-19T00:19:39.515Z,100789.47
2023-05-19T00:22:06.268Z,100789.63
2023-05-19T00:24:33.350Z,100792.75
2023-05-19T00:27:00.061Z,100787.09
2023-05-19T00:29:26.791Z,100787.72
2023-05-19T00:31:53.573Z,100797.56
2023-05-19T00:34:20.345Z,100794.06
2023-05-19T00:36:46.971Z,100783.41
2023-05-19T00:39:13.661Z,100783.84
2023-05-19T00:41:40.440Z,100787.44
2023-05-19T00:44:07.315Z,100788.56
2023-05-19T00:46:34.183Z,100784.81
2023-05-19T00:49:00.931Z,100790.56
2023-05-19T00:51:29.684Z,100796.06
2023-05-19T00:53:56.767Z,100782.84
2023-05-19T00:56:23.686Z,100784.94
2023-05-19T00:58:51.972Z,100787.25
2023-05-19T01:01:19.096Z,100795.53
2023-05-19T01:03:47.214Z,100792.47
2023-05-19T01:06:15.112Z,100798.28
2023-05-19T01:08:41.834Z,100791.97
2023-05-19T01:11:08.658Z,100790.16
2023-05-19T01:13:36.415Z,100797.34
2023-05-19T01:16:11.363Z,100795.69
2023-05-19T01:18:47.741Z,100796.97
2023-05-19T01:21:51.236Z,100787.94
2023-05-19T01:24:49.726Z,100785.50
2023-05-19T01:27:48.167Z,100788.72
2023-05-19T01:30:29.243Z,100785.59
2023-05-19T01:33:00.694Z,100786.81
2023-05-19T01:35:28.649Z,100787.16
2023-05-19T01:37:57.957Z,100789.69
2023-05-19T01:40:25.864Z,100799.50
2023-05-19T01:42:57.849Z,100797.03
2023-05-19T01:45:26.220Z,100796.69
2023-05-19T01:47:57.033Z,100794.06
2023-05-19T01:50:24.057Z,100790.13
2023-05-19T01:52:51.485Z,100783.78
2023-05-19T01:55:18.837Z,100780.28
2023-05-19T01:58:13.262Z,100779.00
2023-05-19T02:00:54.163Z,100776.34
2023-05-19T02:03:38.645Z,100766.91
2023-05-19T02:06:33.242Z,100768.41
2023-05-19T02:09:45.025Z,100768.59
2023-05-19T02:12:20.447Z,100768.41
2023-05-19T02:14:57.752Z,100760.28
2023-05-19T02:17:29.381Z,100770.75
2023-05-19T02:19:56.863Z,100774.13
2023-05-19T02:22:23.610Z,100771.13
2023-05-19T02:24:51.948Z,100767.44
2023-05-19T02:27:19.005Z,100768.78
2023-05-19T02:29:46.087Z,100764.31
2023-05-19T02:32:13.906Z,100753.81
2023-05-19T02:34:42.306Z,100753.44
2023-05-19T02:37:09.385Z,100750.13
2023-05-19T02:39:36.129Z,100763.41
2023-05-19T02:42:02.819Z,100752.78
2023-05-19T02:44:29.573Z,100752.44
2023-05-19T02:46:56.257Z,100759.94
2023-05-19T02:49:23.120Z,100758.78
2023-05-19T02:51:49.796Z,100760.41
2023-05-19T02:54:16.494Z,100759.56
2023-05-19T02:56:43.225Z,100770.28
2023-05-19T02:59:09.881Z,100763.19
2023-05-19T03:01:37.792Z,100771.00
2023-05-19T03:04:04.738Z,100765.38
2023-05-19T03:06:32.895Z,100764.72
2023-05-19T03:08:59.659Z,100764.72
2023-05-19T03:11:26.474Z,100761.09
2023-05-19T03:13:53.154Z,100763.06
2023-05-19T03:16:20.129Z,100764.88
2023-05-19T03:18:46.932Z,100764.72
2023-05-19T03:21:13.680Z,100773.03
2023-05-19T03:23:40.325Z,100771.50
2023-05-19T03:26:06.971Z,100773.69
2023-05-19T03:28:33.688Z,100771.03
2023-05-19T03:31:00.438Z,100776.19
2023-05-19T03:33:29.889Z,100782.97
2023-05-19T03:35:57.589Z,100781.00
2023-05-19T03:38:24.291Z,100772.38
2023-05-19T03:40:50.925Z,100783.47
2023-05-19T03:43:17.616Z,100780.47
2023-05-19T03:45:44.421Z,100787.44
2023-05-19T03:48:11.194Z,100786.81
2023-05-19T03:50:38.136Z,100782.81
2023-05-19T03:53:04.926Z,100794.00
2023-05-19T03:55:31.769Z,100795.94
2023-05-19T03:57:58.402Z,100789.47
2023-05-19T04:00:25.153Z,100798.81
2023-05-19T04:02:52.045Z,100797.78
2023-05-19T04:05:18.948Z,100800.16
2023-05-19T04:07:46.829Z,100801.59
2023-05-19T04:10:13.930Z,100811.28
2023-05-19T04:12:40.725Z,100816.59
2023-05-19T04:15:08.123Z,100816.72
2023-05-19T04:17:35.098Z,100824.88
2023-05-19T04:20:01.911Z,100822.91
2023-05-19T04:22:28.566Z,100822.59
2023-05-19T04:24:56.295Z,100831.09
2023-05-19T04:27:23.109Z,100826.91
2023-05-19T04:29:50.104Z,100831.91
2023-05-19T04:32:19.744Z,100828.59
2023-05-19T04:34:46.572Z,100829.56
2023-05-19T04:37:14.272Z,100831.38
2023-05-19T04:39:45.255Z,100837.53
2023-05-19T04:42:12.416Z,100838.06
2023-05-19T04:44:42.413Z,100848.19
2023-05-19T04:47:09.310Z,100846.13
2023-05-19T04:49:39.133Z,100840.69
2023-05-19T04:52:11.931Z,100833.97
2023-05-19T04:54:40.117Z,100835.78
2023-05-19T04:57:06.935Z,100840.81
2023-05-19T04:59:33.743Z,100844.44
2023-05-19T05:02:00.682Z,100839.00
2023-05-19T05:04:28.426Z,100836.94
2023-05-19T05:06:55.098Z,100846.41
2023-05-19T05:09:21.933Z,100838.44
2023-05-19T05:11:48.842Z,100842.16
2023-05-19T05:14:16.325Z,100848.22
2023-05-19T05:16:43.735Z,100852.09
2023-05-19T05:19:10.833Z,100831.44
2023-05-19T05:21:37.819Z,100843.09
2023-05-19T05:24:04.837Z,100846.56
2023-05-19T05:26:33.951Z,100840.09
2023-05-19T05:29:00.591Z,100850.81
2023-05-19T05:31:27.330Z,100849.88
2023-05-19T05:33:54.039Z,100860.19
2023-05-19T05:36:20.758Z,100857.88
2023-05-19T05:38:47.483Z,100862.03
2023-05-19T05:41:14.210Z,100867.75
2023-05-19T05:43:40.909Z,100876.78
2023-05-19T05:46:07.677Z,100874.72
2023-05-19T05:48:34.911Z,100876.53
2023-05-19T05:51:01.829Z,100877.69
2023-05-19T05:53:32.170Z,100875.22
2023-05-19T05:55:59.248Z,100866.72
2023-05-19T05:58:25.930Z,100881.19
2023-05-19T06:00:53.619Z,100864.59
2023-05-19T06:03:24.452Z,100866.00
2023-05-19T06:05:51.678Z,100873.63
2023-05-19T06:08:18.574Z,100876.19
2023-05-19T06:10:47.251Z,100866.38
2023-05-19T06:13:17.896Z,100863.97
2023-05-19T06:15:44.690Z,100874.50
2023-05-19T06:18:11.425Z,100875.34
2023-05-19T06:20:38.228Z,100884.41
2023-05-19T06:23:04.917Z,100888.28
2023-05-19T06:25:32.130Z,100876.09
2023-05-19T06:27:59.010Z,100888.66
2023-05-19T06:30:25.791Z,100881.03
2023-05-19T06:32:52.521Z,100880.00
2023-05-19T06:35:19.289Z,100887.56
2023-05-19T06:37:46.075Z,100888.75
2023-05-19T06:40:13.209Z,100893.56
2023-05-19T06:42:39.869Z,100890.50
2023-05-19T06:45:07.160Z,100890.06
2023-05-19T06:47:33.825Z,100888.69
2023-05-19T06:50:00.557Z,100895.13
2023-05-19T06:52:27.272Z,100888.47
2023-05-19T06:54:54.163Z,100897.34
2023-05-19T06:57:23.546Z,100904.78
2023-05-19T06:59:50.208Z,100907.50
2023-05-19T07:02:17.025Z,100912.97
2023-05-19T07:04:43.877Z,100905.94
2023-05-19T07:07:10.719Z,100908.00
2023-05-19T07:09:37.445Z,100904.59
2023-05-19T07:12:05.249Z,100905.03
2023-05-19T07:14:36.538Z,100889.47
2023-05-19T07:17:03.274Z,100881.59
2023-05-19T07:19:30.058Z,100879.03
2023-05-19T07:21:57.276Z,100876.69
2023-05-19T07:24:24.047Z,100885.72
2023-05-19T07:26:50.996Z,100876.25
2023-05-19T07:29:17.670Z,100881.03
2023-05-19T07:31:44.403Z,100881.53
2023-05-19T07:34:11.083Z,100877.72
2023-05-19T07:36:37.887Z,100871.25
2023-05-19T07:39:04.802Z,100872.44
2023-05-19T07:41:31.588Z,100882.06
2023-05-19T07:43:58.426Z,100871.84
2023-05-19T07:46:25.147Z,100873.38
2023-05-19T07:48:51.785Z,100875.94
2023-05-19T07:51:19.535Z,100868.56
2023-05-19T07:53:47.222Z,100861.59
2023-05-19T07:56:14.080Z,100858.56
2023-05-19T07:58:40.955Z,100861.03
2023-05-19T08:01:07.649Z,100858.41
2023-05-19T08:03:34.823Z,100859.22
2023-05-19T08:06:01.739Z,100871.22
2023-05-19T08:08:28.422Z,100852.88
2023-05-19T08:10:55.158Z,100856.22
2023-05-19T08:13:21.990Z,100854.31
2023-05-19T08:15:48.760Z,100857.25
2023-05-19T08:18:15.786Z,100859.91
2023-05-19T08:20:42.528Z,100858.53
2023-05-19T08:23:09.223Z,100860.97
2023-05-19T08:25:35.968Z,100856.00
2023-05-19T08:28:03.892Z,100847.13
2023-05-19T08:30:30.642Z,100845.47
2023-05-19T08:32:58.179Z,100846.94
2023-05-19T08:35:25.006Z,100839.13
2023-05-19T08:37:52.694Z,100838.66
2023-05-19T08:40:20.418Z,100838.25
2023-05-19T08:42:51.194Z,100847.72
2023-05-19T08:45:18.019Z,100837.41
2023-05-19T08:47:46.927Z,100842.75
2023-05-19T08:50:17.785Z,100837.59
2023-05-19T08:52:57.867Z,100835.03
2023-05-19T08:55:53.369Z,100839.38
2023-05-19T08:58:22.009Z,100846.69
2023-05-19T09:00:49.521Z,100843.91
2023-05-19T09:03:23.686Z,100838.88
2023-05-19T09:05:51.396Z,100842.16
2023-05-19T09:08:18.516Z,100835.38
2023-05-19T09:10:45.563Z,100834.81
2023-05-19T09:13:12.255Z,100832.78
2023-05-19T09:15:39.969Z,100829.22
2023-05-19T09:18:12.205Z,100827.53
2023-05-19T09:20:44.787Z,100837.13
2023-05-19T09:23:16.393Z,100834.88
2023-05-19T09:25:51.010Z,100826.91
2023-05-19T09:28:28.144Z,100826.81
2023-05-19T09:31:06.197Z,100820.97
2023-05-19T09:33:35.051Z,100805.88
2023-05-19T09:36:02.037Z,100816.06
2023-05-19T09:38:28.823Z,100803.72
2023-05-19T09:41:00.059Z,100794.63
2023-05-19T09:43:30.981Z,100799.03
2023-05-19T09:46:03.621Z,100799.75
2023-05-19T09:48:34.780Z,100797.59
2023-05-19T09:51:02.587Z,100796.25
2023-05-19T09:53:32.729Z,100795.84
2023-05-19T09:56:02.035Z,100796.56
2023-05-19T09:58:37.480Z,100806.75
2023-05-19T10:01:05.586Z,100802.78
2023-05-19T10:03:33.923Z,100793.81
2023-05-19T10:06:05.503Z,100796.13
2023-05-19T10:08:34.324Z,100797.38
2023-05-19T10:11:01.846Z,100800.97
2023-05-19T10:13:31.075Z,100794.47
2023-05-19T10:15:59.978Z,100796.53
2023-05-19T10:18:30.258Z,100791.63
2023-05-19T10:20:58.186Z,100793.09
2023-05-19T10:23:26.142Z,100792.19
2023-05-19T10:25:57.700Z,100791.56
2023-05-19T10:28:30.483Z,100793.97
2023-05-19T10:31:00.680Z,100795.47
2023-05-19T10:33:53.985Z,100788.06
2023-05-19T10:36:32.648Z,100785.03
2023-05-19T10:39:06.720Z,100778.41
2023-05-19T10:42:07.324Z,100784.25
2023-05-19T10:44:57.536Z,100787.69
2023-05-19T10:47:25.471Z,100781.66
2023-05-19T10:49:55.877Z,100779.06
2023-05-19T10:52:29.725Z,100782.28
2023-05-19T10:54:56.482Z,100777.72
2023-05-19T10:57:28.151Z,100767.88
2023-05-19T10:59:57.586Z,100771.41
2023-05-19T11:02:43.416Z,100761.91
2023-05-19T11:05:14.864Z,100773.50
2023-05-19T11:07:56.188Z,100763.63
2023-05-19T11:10:23.960Z,100771.84
2023-05-19T11:15:19.751Z,100774.84
2023-05-19T11:17:49.007Z,100785.63
2023-05-19T11:20:29.918Z,100782.06
2023-05-19T11:23:18.976Z,100785.81
2023-05-19T11:25:51.293Z,100781.22
2023-05-19T11:28:20.122Z,100779.84
2023-05-19T11:30:52.038Z,100784.66
2023-05-19T11:33:20.685Z,100791.22
2023-05-19T11:35:49.617Z,100781.56
2023-05-19T11:38:18.764Z,100781.25
2023-05-19T11:40:47.230Z,100783.31
2023-05-19T11:43:13.940Z,100788.25
2023-05-19T11:45:40.733Z,100782.00
2023-05-19T11:48:15.692Z,100787.75
2023-05-19T11:50:43.936Z,100775.63
2023-05-19T11:53:14.277Z,100769.19
2023-05-19T11:55:50.022Z,100766.31
2023-05-19T11:58:19.490Z,100762.94
2023-05-19T12:00:47.941Z,100753.47
2023-05-19T12:03:15.279Z,100761.97
2023-05-19T12:05:48.329Z,100743.84
2023-05-19T12:08:18.553Z,100748.97
2023-05-19T12:10:50.100Z,100749.63
2023-05-19T12:13:16.981Z,100752.22
2023-05-19T12:15:43.943Z,100742.00
2023-05-19T12:18:10.818Z,100738.94
2023-05-19T12:20:37.913Z,100735.28
2023-05-19T12:23:05.233Z,100729.78
2023-05-19T12:25:32.749Z,100727.66
2023-05-19T12:28:03.061Z,100729.28
2023-05-19T12:30:34.357Z,100722.91
2023-05-19T12:33:02.823Z,100718.91
2023-05-19T12:35:34.534Z,100720.47
2023-05-19T12:38:05.582Z,100713.88
2023-05-19T12:40:35.057Z,100715.19
2023-05-19T12:43:02.479Z,100703.69
2023-05-19T12:45:33.709Z,100697.72
2023-05-19T12:48:03.632Z,100694.69
2023-05-19T12:50:34.392Z,100705.34
2023-05-19T12:53:01.509Z,100700.88
2023-05-19T12:55:30.418Z,100703.59
2023-05-19T12:57:58.461Z,100700.34
2023-05-19T13:00:28.700Z,100684.63
2023-05-19T13:03:10.002Z,100679.09
2023-05-19T13:05:43.783Z,100693.19
2023-05-19T13:08:15.227Z,100683.69
2023-05-19T13:10:45.985Z,100687.09
2023-05-19T13:13:13.425Z,100687.41
2023-05-19T13:15:51.122Z,100680.41
2023-05-19T13:18:18.158Z,100677.56
2023-05-19T13:20:47.432Z,100681.81
2023-05-19T13:23:14.738Z,100671.31
2023-05-19T13:25:42.164Z,100677.72
2023-05-19T13:28:09.700Z,100667.50
2023-05-19T13:30:45.038Z,100665.56
2023-05-19T13:33:12.060Z,100669.50
2023-05-19T13:35:39.159Z,100673.78
2023-05-19T13:38:10.854Z,100670.19
2023-05-19T13:40:39.657Z,100668.63
2023-05-19T13:43:07.463Z,100675.44
2023-05-19T13:45:34.221Z,100674.00
2023-05-19T13:48:01.121Z,100672.41
2023-05-19T13:50:28.011Z,100681.34
2023-05-19T13:52:54.807Z,100679.03
2023-05-19T13:55:22.526Z,100686.69
2023-05-19T13:57:49.386Z,100670.38
2023-05-19T14:00:17.732Z,100682.84
2023-05-19T14:02:44.523Z,100680.06
2023-05-19T14:05:11.483Z,100677.94
2023-05-19T14:07:38.457Z,100673.16
2023-05-19T14:10:08.934Z,100679.72
2023-05-19T14:12:49.514Z,100680.16
2023-05-19T14:15:23.044Z,100680.84
2023-05-19T14:17:49.771Z,100675.44
2023-05-19T14:20:16.486Z,100679.34
2023-05-19T14:22:43.194Z,100685.03
2023-05-19T14:25:10.124Z,100679.19
2023-05-19T14:27:37.006Z,100679.09
2023-05-19T14:30:04.003Z,100675.38
2023-05-19T14:32:30.831Z,100675.22
2023-05-19T14:34:57.535Z,100673.72
2023-05-19T14:37:29.612Z,100674.06
2023-05-19T14:39:57.843Z,100671.22
2023-05-19T14:42:25.332Z,100660.31
2023-05-19T14:44:52.002Z,100666.28
2023-05-19T14:47:18.918Z,100665.38
2023-05-19T14:49:45.685Z,100662.00
2023-05-19T14:52:12.382Z,100655.34
2023-05-19T14:54:39.289Z,100653.81
2023-05-19T14:57:07.296Z,100647.03
2023-05-19T14:59:37.928Z,100648.88
2023-05-19T15:02:07.901Z,100657.91
2023-05-19T15:04:34.551Z,100656.69
2023-05-19T15:09:36.533Z,100658.41
2023-05-19T15:12:03.376Z,100652.31
2023-05-19T15:14:31.433Z,100641.53
2023-05-19T15:16:58.788Z,100644.69
2023-05-19T15:19:26.185Z,100637.47
2023-05-19T15:21:53.107Z,100628.94
2023-05-19T15:24:19.859Z,100633.38
2023-05-19T15:26:47.301Z,100646.44
2023-05-19T15:29:14.152Z,100640.03
2023-05-19T15:31:41.469Z,100639.44
2023-05-19T15:34:08.532Z,100640.78
2023-05-19T15:36:35.624Z,100632.78
2023-05-19T15:39:03.663Z,100634.94
2023-05-19T15:41:30.831Z,100632.78
2023-05-19T15:44:00.201Z,100629.44
2023-05-19T15:46:27.361Z,100635.25
2023-05-19T15:48:54.064Z,100634.22
2023-05-19T15:51:20.960Z,100631.19
2023-05-19T15:53:48.955Z,100629.06
2023-05-19T15:56:15.902Z,100617.94
2023-05-19T15:58:42.695Z,100610.47
2023-05-19T16:01:09.778Z,100613.84
2023-05-19T16:03:36.497Z,100618.03
2023-05-19T16:06:03.537Z,100618.22
2023-05-19T16:08:30.369Z,100622.38
2023-05-19T16:10:57.283Z,100627.22
2023-05-19T16:13:24.097Z,100625.34
2023-05-19T16:15:51.925Z,100620.19
2023-05-19T16:18:18.869Z,100620.06
2023-05-19T16:20:45.638Z,100623.38
2023-05-19T16:23:12.253Z,100624.16
2023-05-19T16:25:38.928Z,100631.09
2023-05-19T16:28:05.944Z,100627.50
2023-05-19T16:30:32.949Z,100623.53
2023-05-19T16:32:59.926Z,100619.03
2023-05-19T16:35:29.405Z,100614.44
2023-05-19T16:37:56.267Z,100616.06
2023-05-19T16:40:22.935Z,100614.16
2023-05-19T16:42:49.858Z,100606.50
2023-05-19T16:45:17.551Z,100607.00
2023-05-19T16:47:44.785Z,100601.72
2023-05-19T16:50:13.926Z,100601.00
2023-05-19T16:52:40.850Z,100609.03
2023-05-19T16:55:07.921Z,100613.31
2023-05-19T16:57:35.184Z,100611.00
2023-05-19T17:00:02.050Z,100615.03
2023-05-19T17:02:28.856Z,100608.63
2023-05-19T17:04:58.796Z,100609.72
2023-05-19T17:07:25.479Z,100615.16
2023-05-19T17:09:54.494Z,100611.94
2023-05-19T17:12:22.648Z,100612.50
2023-05-19T17:14:50.436Z,100615.72
2023-05-19T17:17:17.182Z,100618.78
2023-05-19T17:19:43.892Z,100623.94
2023-05-19T17:22:11.357Z,100629.06
2023-05-19T17:24:38.024Z,100635.53
2023-05-19T17:27:06.093Z,100634.72
2023-05-19T17:29:33.773Z,100628.78
2023-05-19T17:32:03.517Z,100626.41
2023-05-19T17:34:30.744Z,100621.25
2023-05-19T17:36:57.430Z,100621.16
2023-05-19T17:39:24.851Z,100620.59
2023-05-19T17:41:51.647Z,100621.97
2023-05-19T17:44:18.429Z,100620.31
2023-05-19T17:46:48.081Z,100621.56
2023-05-19T17:49:15.411Z,100615.94
2023-05-19T17:51:42.527Z,100605.28
2023-05-19T17:54:09.410Z,100611.97
2023-05-19T17:56:40.947Z,100612.97
2023-05-19T17:59:07.835Z,100614.13
2023-05-19T18:01:36.033Z,100616.28
2023-05-19T18:04:03.880Z,100618.06
2023-05-19T18:06:33.330Z,100622.75
2023-05-19T18:09:03.284Z,100622.16
2023-05-19T18:11:29.981Z,100623.50
2023-05-19T18:13:57.378Z,100632.09
2023-05-19T18:16:24.133Z,100637.84
2023-05-19T18:18:51.948Z,100635.00
2023-05-19T18:21:19.305Z,100639.78
2023-05-19T18:23:46.702Z,100642.88
2023-05-19T18:26:13.712Z,100635.06
2023-05-19T18:28:41.542Z,100639.84
2023-05-19T18:31:17.430Z,100645.47
2023-05-19T18:33:47.672Z,100639.25
2023-05-19T18:36:16.545Z,100646.28
2023-05-19T18:38:43.371Z,100647.50
2023-05-19T18:41:10.191Z,100648.34
2023-05-19T18:43:36.879Z,100652.06
2023-05-19T18:46:03.599Z,100644.22
2023-05-19T18:48:30.450Z,100648.16
2023-05-19T18:50:57.224Z,100649.19
2023-05-19T18:53:24.027Z,100646.69
2023-05-19T18:55:53.199Z,100642.16
2023-05-19T18:58:19.859Z,100653.25
2023-05-19T19:00:46.904Z,100644.78
2023-05-19T19:03:13.755Z,100646.59
2023-05-19T19:05:40.499Z,100644.09
2023-05-19T19:08:07.215Z,100653.00
2023-05-19T19:10:40.928Z,100657.94
2023-05-19T19:13:07.697Z,100664.28
2023-05-19T19:15:34.349Z,100672.16
2023-05-19T19:18:01.117Z,100665.75
2023-05-19T19:20:27.882Z,100672.56
2023-05-19T19:22:54.613Z,100670.47
2023-05-19T19:25:23.266Z,100675.56
2023-05-19T19:27:50.625Z,100675.34
2023-05-19T19:30:17.473Z,100669.16
2023-05-19T19:32:44.185Z,100674.44
2023-05-19T19:35:11.276Z,100682.72
2023-05-19T19:37:40.226Z,100673.66
2023-05-19T19:40:07.392Z,100680.22
2023-05-19T19:42:34.331Z,100692.00
2023-05-19T19:45:01.064Z,100693.63
2023-05-19T19:47:27.734Z,100699.25
2023-05-19T19:49:54.492Z,100696.63
2023-05-19T19:52:21.135Z,100704.84
2023-05-19T19:54:48.258Z,100695.44
2023-05-19T19:57:17.325Z,100697.09
2023-05-19T19:59:44.020Z,100697.22
2023-05-19T20:02:10.796Z,100704.16
2023-05-19T20:04:37.897Z,100703.44
2023-05-19T20:07:04.972Z,100715.81
2023-05-19T20:09:31.584Z,100718.84
2023-05-19T20:11:58.272Z,100721.47
2023-05-19T20:14:24.966Z,100715.19
2023-05-19T20:16:51.647Z,100712.50
2023-05-19T20:19:18.537Z,100712.97
2023-05-19T20:21:45.209Z,100709.94
2023-05-19T20:24:11.913Z,100715.47
2023-05-19T20:26:38.716Z,100712.31
2023-05-19T20:29:05.379Z,100707.34
2023-05-19T20:31:32.057Z,100712.91
2023-05-19T20:33:59.472Z,100705.53
2023-05-19T20:36:28.082Z,100713.94
2023-05-19T20:38:54.850Z,100714.97
2023-05-19T20:41:23.647Z,100716.53
2023-05-19T20:43:50.414Z,100714.16
2023-05-19T20:46:17.356Z,100717.47
2023-05-19T20:48:44.063Z,100720.41
2023-05-19T20:51:13.053Z,100708.16
2023-05-19T20:53:39.798Z,100702.06
2023-05-19T20:56:07.420Z,100699.25
2023-05-19T20:58:34.142Z,100701.81
2023-05-19T21:01:00.927Z,100698.94
2023-05-19T21:03:28.592Z,100694.91
2023-05-19T21:05:55.633Z,100692.88
2023-05-19T21:08:23.088Z,100689.84
2023-05-19T21:10:49.934Z,100683.84
2023-05-19T21:13:17.874Z,100684.59
2023-05-19T21:15:44.729Z,100668.66
2023-05-19T21:18:12.245Z,100676.13
2023-05-19T21:20:39.568Z,100670.88
2023-05-19T21:23:06.306Z,100670.78
2023-05-19T21:25:33.097Z,100668.13
2023-05-19T21:27:59.928Z,100660.19
2023-05-19T21:30:26.640Z,100665.06
2023-05-19T21:32:53.406Z,100659.09
2023-05-19T21:35:20.141Z,100662.03
2023-05-19T21:37:46.830Z,100658.63
2023-05-19T21:40:13.603Z,100660.47
2023-05-19T21:42:40.345Z,100653.88
2023-05-19T21:45:07.599Z,100653.44
2023-05-19T21:47:34.308Z,100649.00
2023-05-19T21:50:00.960Z,100650.22
2023-05-19T21:52:27.621Z,100645.97
2023-05-19T21:54:54.343Z,100645.97
2023-05-19T21:57:21.079Z,100647.97
2023-05-19T21:59:48.964Z,100646.41
2023-05-19T22:02:17.061Z,100643.56
2023-05-19T22:04:44.794Z,100641.63
2023-05-19T22:07:11.430Z,100635.28
2023-05-19T22:09:38.193Z,100638.16
2023-05-19T22:12:05.211Z,100632.78
2023-05-19T22:14:31.809Z,100629.75
2023-05-19T22:16:58.487Z,100633.06
2023-05-19T22:19:25.302Z,100624.06
2023-05-19T22:22:01.595Z,100621.22
2023-05-19T22:24:32.849Z,100613.84
2023-05-19T22:26:59.496Z,100619.25
2023-05-19T22:29:27.144Z,100606.00
2023-05-19T22:31:53.783Z,100606.56
2023-05-19T22:34:20.636Z,100605.44
2023-05-19T22:36:47.310Z,100612.09
2023-05-19T22:39:14.000Z,100599.59
2023-05-19T22:41:40.942Z,100596.31
2023-05-19T22:44:15.023Z,100599.59
2023-05-19T22:46:44.257Z,100594.56
2023-05-19T22:49:11.072Z,100598.41
2023-05-19T22:51:39.300Z,100595.47
2023-05-19T22:54:06.951Z,100597.41
2023-05-19T22:56:34.090Z,100594.34
2023-05-19T22:59:00.726Z,100592.88
2023-05-19T23:01:27.540Z,100597.22
2023-05-19T23:03:54.295Z,100593.97
2023-05-19T23:06:22.073Z,100592.88
2023-05-19T23:08:58.555Z,100586.66
2023-05-19T23:11:25.825Z,100585.09
2023-05-19T23:13:52.560Z,100585.56
2023-05-19T23:16:19.370Z,100587.22
2023-05-19T23:18:46.207Z,100591.66
2023-05-19T23:21:13.308Z,100589.41
2023-05-19T23:23:40.091Z,100581.69
2023-05-19T23:26:06.800Z,100581.78
2023-05-19T23:28:34.699Z,100579.50
2023-05-19T23:31:01.688Z,100581.81
2023-05-19T23:33:28.385Z,100576.06
2023-05-19T23:35:55.023Z,100576.28
2023-05-19T23:38:21.717Z,100573.34
2023-05-19T23:40:48.422Z,100573.22
2023-05-19T23:43:15.126Z,100574.84
2023-05-19T23:45:41.837Z,100570.72
2023-05-19T23:48:08.545Z,100583.47
2023-05-19T23:50:35.292Z,100581.69
2023-05-19T23:53:02.021Z,100578.94
2023-05-19T23:55:28.752Z,100580.94
2023-05-19T23:57:55.407Z,100582.50
